Погода Сан Мигуел ду Тапоуина 2 недели

Пиауи, Бразилия

14 - 27 июля
  • 14июля
    Сегодня
    +22°
    +32°
    Облачно с прояснениями
    ВремяПогодаТемператураВлажностьДавлениеВетер, м/сВероятность осадков
    00:00Небольшая облачность+25°C49 %736 мм4.7 м/с5 %
    03:00Практически безоблачно+23°C62 %736 мм4.4 м/с5 %
    06:00Ясно и безоблачно+22°C74 %737 мм4.7 м/с5 %
    09:00Практически безоблачно+26°C48 %738 мм7.0 м/с5 %
    12:00Небольшая облачность+30°C29 %737 мм6.8 м/с5 %
    15:00Облачно с прояснениями+32°C30 %735 мм5.7 м/с5 %
    18:00Практически безоблачно+30°C36 %735 мм3.8 м/с5 %
    21:00Ясно и безоблачно+26°C48 %737 мм2.3 м/с5 %
  • 15июля
    Понедельник
    +22°
    +33°
    Практически безоблачно
    ВремяПогодаТемператураВлажностьДавлениеВетер, м/сВероятность осадков
    00:00Практически безоблачно+25°C55 %737 мм3.2 м/с5 %
    03:00Ясно и безоблачно+23°C59 %736 мм4.1 м/с2 %
    06:00Практически безоблачно+23°C69 %737 мм5.6 м/с3 %
    09:00Ясно и безоблачно+26°C52 %738 мм7.7 м/с4 %
    12:00Ясно и безоблачно+30°C36 %737 мм6.6 м/с5 %
    15:00Практически безоблачно+32°C31 %736 мм5.2 м/с5 %
    18:00Практически безоблачно+30°C36 %736 мм4.0 м/с5 %
    21:00Ясно и безоблачно+26°C44 %737 мм3.2 м/с5 %
  • 16июля
    Вторник
    +21°
    +32°
    Ясно и безоблачно
    ВремяПогодаТемператураВлажностьДавлениеВетер, м/сВероятность осадков
    00:00Ясно и безоблачно+25°C52 %737 мм2.5 м/с5 %
    03:00Ясно и безоблачно+23°C58 %737 мм4.6 м/с3 %
    06:00Ясно и безоблачно+22°C68 %738 мм4.2 м/с5 %
    09:00Ясно и безоблачно+26°C46 %739 мм6.5 м/с5 %
    12:00Ясно и безоблачно+30°C29 %738 мм5.9 м/с5 %
    15:00Ясно и безоблачно+32°C26 %736 мм5.1 м/с5 %
    18:00Ясно и безоблачно+30°C30 %736 мм3.3 м/с5 %
    21:00Ясно и безоблачно+26°C38 %738 мм3.8 м/с5 %
  • 17июля
    Среда
    +22°
    +32°
    Практически безоблачно
    ВремяПогодаТемператураВлажностьДавлениеВетер, м/сВероятность осадков
    00:00Ясно и безоблачно+25°C47 %738 мм2.9 м/с5 %
    03:00Ясно и безоблачно+23°C57 %737 мм3.6 м/с5 %
    06:00Ясно и безоблачно+22°C70 %738 мм3.7 м/с5 %
    09:00Практически безоблачно+27°C51 %739 мм7.7 м/с5 %
    12:00Небольшая облачность+30°C33 %738 мм6.9 м/с5 %
    15:00Практически безоблачно+32°C30 %735 мм5.6 м/с5 %
    18:00Ясно и безоблачно+30°C34 %736 мм4.0 м/с5 %
    21:00Ясно и безоблачно+26°C44 %737 мм2.4 м/с5 %
  • 18июля
    Четверг
    +24°
    +33°
    Практически безоблачно
    ВремяПогодаТемператураВлажностьДавлениеВетер, м/сВероятность осадков
    00:00Ясно и безоблачно+25°C50 %737 мм2.6 м/с5 %
    03:00Ясно и безоблачно+23°C62 %736 мм3.3 м/с4 %
    06:00Ясно и безоблачно+23°C71 %737 мм4.2 м/с6 %
    09:00Практически безоблачно+27°C54 %738 мм7.5 м/с3 %
    12:00Небольшая облачность+30°C39 %737 мм5.2 м/с3 %
    15:00Практически безоблачно+33°C30 %735 мм3.9 м/с5 %
    18:00Облачно с прояснениями+31°C34 %736 мм3.0 м/с5 %
    21:00Практически безоблачно+27°C44 %737 мм1.7 м/с5 %
Мы используем cookies
Соглашаюсь